< Typhoon 195116 1951 Season Typhoon 195118 >
Typhoon 195117 (THELMA)
General InformationTrack Information on Google Maps || Disaster Info.ResourceGoogle EarthGE AnimationAtom FeedGeoJSON
Detalied Best Track (Time Zone = UTC)
Year Month Day Hour Lat. Long. Pressure (hPa) Wind (kt) Class Image Chart
1951 10 27 06 14.2 149.1 980 0 9 -- Chart
1951 10 27 12 14.9 147.1 980 0 9 -- Chart
1951 10 27 18 15.6 145.0 980 0 9 -- Chart
1951 10 28 00 16.3 143.0 975 0 9 -- Chart
1951 10 28 06 17.0 141.5 960 0 9 -- Chart
1951 10 28 12 18.5 139.7 960 0 9 -- Chart
1951 10 28 18 20.0 138.2 960 0 9 -- Chart
1951 10 29 00 21.5 137.0 950 0 9 -- Chart
1951 10 29 06 23.4 136.0 950 0 9 -- Chart
1951 10 29 12 25.0 135.7 950 0 9 -- Chart
1951 10 29 18 26.8 136.8 950 0 9 -- Chart
1951 10 30 00 28.5 138.8 955 0 9 -- Chart
1951 10 30 06 30.5 141.2 960 0 9 -- Chart
1951 10 30 12 32.5 145.0 960 0 9 -- Chart
1951 10 30 18 34.3 149.4 960 0 9 -- Chart
1951 10 31 00 36.4 154.5 970 0 9 -- Chart
1951 10 31 06 37.6 160.0 970 0 9 -- Chart
1951 10 31 12 37.8 163.0 980 0 9 -- Chart
1951 10 31 18 38.0 166.0 980 0 9 -- Chart
1951 11 1 00 38.0 169.6 980 0 9 -- Chart
1951 11 1 06 38.0 173.2 990 0 9 -- Chart
1951 11 1 12 38.0 176.6 990 0 9 -- Chart
1951 11 1 18 38.0 180.0 990 0 9 -- Chart
1951 11 2 00 38.0 184.0 990 0 9 -- Chart
Japan Meteorological Agency Best Track Data | Correction Date : 1991-07-16
< Typhoon 195116 1951 Season Typhoon 195118 >

Help